^^
Saratoga-Weather Station Historical Data
Daily Summary for June 20, 2022 Units:  Metric    English   Both
Daily Weekly Monthly Yearly Custom
  High: Low: Average:
Temperature: 22.4 °C 14.8 °C 19.2 °C
Dew Point: 18 °C 10.3 °C 14.8 °C
Humidity: 94% 56% 77%
Wind Speed: 16.3km/h 0km/h 3.3km/h
Wind Gust: 24.1km/h - -
Wind- - South
Pressure: 1014.9 hPa 1006.4 hPa -
Precipitation: 3.3 mm    
Historical Graphs
 
 
Tabular Data for June 20, 2022
Time Temperature Dew Point Pressure Wind Wind Speed Wind Gust Humidity Rainfall Rate (Hourly) solar
00:04 22.4 °C 15.5 °C 1006.4 hPa Calm   4.8 km/h 65% 0.0 mm 0 W/m2
00:09 22.4 °C 15.7 °C 1006.4 hPa Calm   3.2 km/h 66% 0.0 mm 0 W/m2
00:14 22.3 °C 15.6 °C 1006.4 hPa NNW 4.7 km/h 4.8 km/h 66% 0.0 mm 0 W/m2
00:19 22.3 °C 15.6 °C 1006.4 hPa ENE 1.4 km/h 1.6 km/h 66% 0.0 mm 0 W/m2
00:24 22.2 °C 15.5 °C 1006.4 hPa Calm   3.2 km/h 66% 0.0 mm 0 W/m2
00:29 22.2 °C 15.5 °C 1006.4 hPa Calm   6.4 km/h 66% 0.0 mm 0 W/m2
00:34 22.1 °C 15.4 °C 1006.4 hPa NW 1.4 km/h 6.4 km/h 66% 0.0 mm 0 W/m2
00:39 22.1 °C 15.4 °C 1006.4 hPa WSW 3.2 km/h 8 km/h 66% 0.0 mm 0 W/m2
00:44 22 °C 15.4 °C 1006.8 hPa NNE 3.2 km/h 6.4 km/h 66% 0.0 mm 0 W/m2
00:49 22 °C 15.4 °C 1006.8 hPa NE 1.4 km/h 8 km/h 66% 0.0 mm 0 W/m2
00:55 21.9 °C 15.3 °C 1006.8 hPa NE 1.4 km/h 8 km/h 66% 0.0 mm 0 W/m2
01:00 21.8 °C 15.2 °C 1006.8 hPa South 3.2 km/h 4.8 km/h 66% 0.0 mm 0 W/m2
01:05 21.8 °C 15.2 °C 1006.8 hPa NW 1.4 km/h 3.2 km/h 66% 0.0 mm 0 W/m2
01:10 21.8 °C 15.2 °C 1006.8 hPa North 4.7 km/h 8 km/h 66% 0.0 mm 0 W/m2
01:15 21.7 °C 15.1 °C 1006.8 hPa NNE 1.4 km/h 8 km/h 66% 0.0 mm 0 W/m2
01:20 21.7 °C 15.1 °C 1006.8 hPa NNW 3.2 km/h 8 km/h 66% 0.0 mm 0 W/m2
01:25 21.7 °C 15.1 °C 1006.8 hPa NW 3.2 km/h 3.2 km/h 66% 0.0 mm 0 W/m2
01:30 21.6 °C 15.2 °C 1006.8 hPa ENE 1.4 km/h 4.8 km/h 67% 0.0 mm 0 W/m2
01:35 21.6 °C 15.2 °C 1007.1 hPa ENE 1.4 km/h 6.4 km/h 67% 0.0 mm 0 W/m2
01:40 21.6 °C 15.2 °C 1008.1 hPa WNW 16.3 km/h 16.1 km/h 67% 0.0 mm 0 W/m2
01:45 21.5 °C 15.1 °C 1007.8 hPa SSW 4.7 km/h 12.9 km/h 67% 0.0 mm 0 W/m2
01:50 21.4 °C 15 °C 1007.8 hPa WNW 4.7 km/h 11.3 km/h 67% 0.0 mm 0 W/m2
01:55 21.4 °C 15 °C 1008.5 hPa West 11.1 km/h 22.5 km/h 67% 0.0 mm 0 W/m2
02:00 21.4 °C 15 °C 1008.1 hPa WNW 4.7 km/h 9.7 km/h 67% 0.0 mm 0 W/m2
02:05 21.4 °C 15 °C 1008.5 hPa NNW 4.7 km/h 22.5 km/h 67% 0.0 mm 0 W/m2
02:10 21.3 °C 14.9 °C 1008.8 hPa West 11.1 km/h 17.7 km/h 67% 0.0 mm 0 W/m2
02:15 21 °C 14.9 °C 1008.8 hPa West 9.7 km/h 17.7 km/h 68% 0.0 mm 0 W/m2
02:20 20.8 °C 14.7 °C 1009.1 hPa North 16.3 km/h 16.1 km/h 68% 0.0 mm 0 W/m2
02:25 20.6 °C 14.7 °C 1008.5 hPa WNW 3.2 km/h 16.1 km/h 69% 0.0 mm 0 W/m2
02:30 20.6 °C 14.7 °C 1008.5 hPa North 4.7 km/h 12.9 km/h 69% 0.0 mm 0 W/m2
02:35 20.5 °C 14.8 °C 1008.5 hPa WNW 4.7 km/h 12.9 km/h 70% 0.0 mm 0 W/m2
02:40 20.5 °C 14.8 °C 1008.1 hPa Calm   3.2 km/h 70% 0.0 mm 0 W/m2
02:45 20.4 °C 14.7 °C 1008.1 hPa ESE 1.4 km/h 4.8 km/h 70% 0.0 mm 0 W/m2
02:50 20.3 °C 14.9 °C 1007.8 hPa ENE 1.4 km/h 1.6 km/h 71% 0.0 mm 0 W/m2
02:55 20.2 °C 15 °C 1007.8 hPa East 4.7 km/h 9.7 km/h 72% 0.0 mm 0 W/m2
03:00 20.2 °C 15.4 °C 1007.8 hPa WNW 3.2 km/h 8 km/h 74% 0.0 mm 0 W/m2
03:05 20.1 °C 15.3 °C 1007.8 hPa ENE 3.2 km/h 3.2 km/h 74% 0.0 mm 0 W/m2
03:10 19.9 °C 15.3 °C 1007.8 hPa Calm   3.2 km/h 75% 0.0 mm 0 W/m2
03:15 19.9 °C 15.3 °C 1008.1 hPa North 1.4 km/h 3.2 km/h 75% 0.0 mm 0 W/m2
03:20 19.8 °C 15.4 °C 1008.1 hPa NE 1.4 km/h 6.4 km/h 76% 0.0 mm 0 W/m2
03:25 19.7 °C 15.3 °C 1007.8 hPa North 6.4 km/h 6.4 km/h 76% 0.0 mm 0 W/m2
03:30 19.6 °C 15.5 °C 1007.8 hPa Calm   3.2 km/h 77% 0.0 mm 0 W/m2
03:35 19.6 °C 15.5 °C 1007.8 hPa NW 4.7 km/h 6.4 km/h 77% 0.0 mm 0 W/m2
03:40 19.5 °C 15.4 °C 1007.8 hPa Calm   1.6 km/h 77% 0.0 mm 0 W/m2
03:45 19.4 °C 15.3 °C 1007.8 hPa NW 3.2 km/h 6.4 km/h 77% 0.0 mm 0 W/m2
03:50 19.4 °C 15.3 °C 1007.8 hPa ENE 3.2 km/h 3.2 km/h 77% 0.0 mm 0 W/m2
03:55 19.4 °C 15.3 °C 1007.8 hPa NNW 1.4 km/h 3.2 km/h 77% 0.0 mm 0 W/m2
04:00 19.4 °C 15.3 °C 1007.8 hPa NNE 1.4 km/h 4.8 km/h 77% 0.0 mm 0 W/m2
04:05 19.4 °C 15.5 °C 1008.1 hPa ENE 3.2 km/h 9.7 km/h 78% 0.0 mm 0 W/m2
04:10 19.3 °C 15.4 °C 1007.8 hPa Calm   1.6 km/h 78% 0.0 mm 0 W/m2
04:15 19.3 °C 15.4 °C 1008.1 hPa Calm   8 km/h 78% 0.0 mm 0 W/m2
04:20 19.3 °C 15.4 °C 1008.1 hPa Calm   3.2 km/h 78% 0.0 mm 0 W/m2
04:25 19.2 °C 15.3 °C 1008.5 hPa WNW 1.4 km/h 3.2 km/h 78% 0.0 mm 0 W/m2
04:30 19.3 °C 15.4 °C 1009.5 hPa WNW 13 km/h 16.1 km/h 78% 0.0 mm 0 W/m2
04:35 19.3 °C 15.2 °C 1009.8 hPa West 6.4 km/h 20.9 km/h 77% 0.0 mm 0 W/m2
04:40 19.3 °C 15.6 °C 1009.1 hPa WNW 7.9 km/h 17.7 km/h 79% 0.0 mm 0 W/m2
04:45 19.2 °C 15.7 °C 1009.1 hPa WNW 11.1 km/h 24.1 km/h 80% 0.0 mm 0 W/m2
04:50 19.2 °C 15.7 °C 1009.1 hPa WSW 3.2 km/h 17.7 km/h 80% 0.0 mm 0 W/m2
04:55 19.2 °C 15.7 °C 1009.1 hPa West 3.2 km/h 22.5 km/h 80% 0.0 mm 0 W/m2
05:00 19.2 °C 15.7 °C 1008.8 hPa WNW 3.2 km/h 9.7 km/h 80% 0.0 mm 0 W/m2
05:05 19.2 °C 15.7 °C 1008.8 hPa WNW 3.2 km/h 4.8 km/h 80% 0.0 mm 0 W/m2
05:10 19.2 °C 15.7 °C 1008.8 hPa WNW 3.2 km/h 8 km/h 80% 0.0 mm 0 W/m2
05:15 19.2 °C 15.7 °C 1008.8 hPa East 1.4 km/h 1.6 km/h 80% 0.0 mm 0 W/m2
05:20 19.2 °C 15.7 °C 1008.8 hPa Calm     80% 0.0 mm 0 W/m2
05:25 19.2 °C 15.7 °C 1009.1 hPa NNW 1.4 km/h 3.2 km/h 80% 0.0 mm 0 W/m2
05:30 19.2 °C 15.7 °C 1009.8 hPa West 4.7 km/h 11.3 km/h 80% 0.0 mm 0 W/m2
05:35 19.2 °C 15.9 °C 1010.8 hPa WNW 9.7 km/h 14.5 km/h 81% 0.0 mm 0 W/m2
05:40 18.9 °C 15.9 °C 1009.1 hPa NNW 1.4 km/h 11.3 km/h 83% 1.3 mm 0 W/m2
05:45 18.6 °C 16 °C 1008.1 hPa NNW 1.4 km/h 3.2 km/h 85% 1.5 mm 0 W/m2
05:50 18.3 °C 16.1 °C 1009.1 hPa WSW 3.2 km/h 4.8 km/h 87% 1.8 mm 0 W/m2
05:55 18.1 °C 16.1 °C 1009.1 hPa West 1.4 km/h 3.2 km/h 88% 1.8 mm 5 W/m2
06:00 17.9 °C 16.1 °C 1009.1 hPa West 3.2 km/h 3.2 km/h 89% 1.8 mm 9 W/m2
06:05 17.8 °C 16.1 °C 1009.8 hPa West 1.4 km/h 9.7 km/h 90% 1.8 mm 7 W/m2
06:10 17.7 °C 16 °C 1009.8 hPa Calm   4.8 km/h 90% 1.8 mm 0 W/m2
06:15 17.6 °C 16.1 °C 1009.8 hPa West 1.4 km/h 8 km/h 91% 1.8 mm 0 W/m2
06:20 17.6 °C 16.1 °C 1009.8 hPa ESE 3.2 km/h 3.2 km/h 91% 2.0 mm 0 W/m2
06:25 17.7 °C 16.4 °C 1009.8 hPa Calm   3.2 km/h 92% 2.3 mm 0 W/m2
06:30 17.7 °C 16.4 °C 1010.2 hPa East 3.2 km/h 3.2 km/h 92% 2.3 mm 0 W/m2
06:35 17.6 °C 16.3 °C 1009.8 hPa ENE 4.7 km/h 9.7 km/h 92% 2.3 mm 0 W/m2
06:40 17.5 °C 16.2 °C 1009.5 hPa NNE 1.4 km/h 3.2 km/h 92% 1.5 mm 0 W/m2
06:45 17.4 °C 16.1 °C 1009.5 hPa Calm   1.6 km/h 92% 1.0 mm 5 W/m2
06:50 17.5 °C 16.2 °C 1009.5 hPa WNW 1.4 km/h 3.2 km/h 92% 1.3 mm 9 W/m2
06:55 17.5 °C 16.2 °C 1009.8 hPa Calm   1.6 km/h 92% 1.5 mm 18 W/m2
07:00 17.5 °C 16.4 °C 1009.1 hPa ENE 4.7 km/h 4.8 km/h 93% 1.5 mm 19 W/m2
07:05 17.6 °C 16.5 °C 1009.1 hPa Calm     93% 1.5 mm 12 W/m2
07:10 17.6 °C 16.5 °C 1009.1 hPa Calm   4.8 km/h 93% 1.5 mm 18 W/m2
07:15 17.6 °C 16.5 °C 1009.1 hPa Calm     93% 1.5 mm 18 W/m2
07:20 17.6 °C 16.5 °C 1008.8 hPa Calm   3.2 km/h 93% 1.3 mm 25 W/m2
07:25 17.6 °C 16.5 °C 1009.1 hPa Calm   3.2 km/h 93% 1.3 mm 40 W/m2
07:30 17.6 °C 16.6 °C 1009.1 hPa Calm     94% 1.0 mm 54 W/m2
07:35 17.7 °C 16.7 °C 1009.1 hPa Calm   3.2 km/h 94% 1.0 mm 63 W/m2
07:40 17.7 °C 16.7 °C 1009.1 hPa Calm     94% 0.8 mm 77 W/m2
07:45 17.7 °C 16.7 °C 1009.1 hPa Calm     94% 0.8 mm 91 W/m2
07:50 17.8 °C 16.8 °C 1009.5 hPa Calm   3.2 km/h 94% 0.5 mm 104 W/m2
07:55 17.9 °C 16.9 °C 1009.1 hPa Calm   6.4 km/h 94% 0.2 mm 91 W/m2
08:01 18.1 °C 17.1 °C 1009.5 hPa Calm     94% 0.2 mm 79 W/m2
08:06 18.1 °C 17.1 °C 1009.5 hPa ENE 3.2 km/h 3.2 km/h 94% 0.2 mm 90 W/m2
08:11 18.1 °C 17.1 °C 1009.8 hPa Calm   1.6 km/h 94% 0.2 mm 139 W/m2
08:16 18.2 °C 17.2 °C 1009.8 hPa Calm     94% 0.2 mm 120 W/m2
08:21 18.2 °C 17.2 °C 1010.2 hPa Calm   1.6 km/h 94% 0.2 mm 113 W/m2
08:26 18.2 °C 17.2 °C 1010.2 hPa East 4.7 km/h 4.8 km/h 94% 0.0 mm 120 W/m2
08:31 18.1 °C 17.1 °C 1010.2 hPa East 3.2 km/h 3.2 km/h 94% 0.0 mm 134 W/m2
08:36 18.2 °C 17 °C 1010.5 hPa East 1.4 km/h 3.2 km/h 93% 0.0 mm 142 W/m2
08:41 18.3 °C 17.3 °C 1010.5 hPa Calm     94% 0.0 mm 156 W/m2
08:46 18.3 °C 17.1 °C 1010.5 hPa ESE 1.4 km/h 3.2 km/h 93% 0.0 mm 165 W/m2
08:51 18.4 °C 17.2 °C 1010.5 hPa WNW 1.4 km/h 1.6 km/h 93% 0.0 mm 169 W/m2
08:56 18.4 °C 17.2 °C 1010.5 hPa Calm     93% 0.0 mm 213 W/m2
09:01 18.7 °C 17.5 °C 1010.5 hPa West 1.4 km/h 6.4 km/h 93% 0.0 mm 193 W/m2
09:06 18.7 °C 17.2 °C 1010.5 hPa NW 1.4 km/h 4.8 km/h 91% 0.0 mm 176 W/m2
09:11 18.8 °C 17.3 °C 1010.8 hPa West 3.2 km/h 6.4 km/h 91% 0.0 mm 169 W/m2
09:16 18.9 °C 17.2 °C 1010.8 hPa West 3.2 km/h 6.4 km/h 90% 0.0 mm 192 W/m2
09:21 18.9 °C 17.2 °C 1010.8 hPa WSW 3.2 km/h 3.2 km/h 90% 0.0 mm 218 W/m2
09:26 19.1 °C 17.4 °C 1010.8 hPa WNW 1.4 km/h 4.8 km/h 90% 0.0 mm 221 W/m2
09:31 19.2 °C 17.3 °C 1011.2 hPa West 3.2 km/h 6.4 km/h 89% 0.0 mm 274 W/m2
09:36 19.3 °C 17.6 °C 1011.5 hPa WNW 3.2 km/h 9.7 km/h 90% 0.0 mm 128 W/m2
09:41 19.4 °C 17.5 °C 1011.5 hPa WSW 6.4 km/h 9.7 km/h 89% 0.0 mm 97 W/m2
09:46 19.3 °C 17.4 °C 1011.9 hPa West 11.1 km/h 11.3 km/h 89% 0.0 mm 102 W/m2
09:51 19.2 °C 17.5 °C 1011.9 hPa West 1.4 km/h 4.8 km/h 90% 0.0 mm 149 W/m2
09:56 19.3 °C 17.6 °C 1011.9 hPa SW 4.7 km/h 8 km/h 90% 0.0 mm 155 W/m2
10:01 19.3 °C 17.6 °C 1011.9 hPa Calm   3.2 km/h 90% 0.0 mm 100 W/m2
10:06 19.3 °C 17.4 °C 1011.9 hPa NNW 3.2 km/h 6.4 km/h 89% 0.0 mm 132 W/m2
10:11 19.3 °C 17.6 °C 1011.9 hPa NW 3.2 km/h 4.8 km/h 90% 0.0 mm 216 W/m2
10:16 19.4 °C 17.5 °C 1011.9 hPa WNW 3.2 km/h 8 km/h 89% 0.0 mm 241 W/m2
10:21 19.5 °C 17.6 °C 1011.9 hPa WSW 3.2 km/h 11.3 km/h 89% 0.0 mm 253 W/m2
10:26 19.7 °C 18 °C 1011.9 hPa NW 9.7 km/h 9.7 km/h 90% 0.0 mm 445 W/m2
10:31 20.2 °C 18 °C 1011.5 hPa West 4.7 km/h 8 km/h 87% 0.0 mm 330 W/m2
10:36 20.3 °C 17.9 °C 1011.5 hPa NNW 6.4 km/h 6.4 km/h 86% 0.0 mm 563 W/m2
10:41 20.6 °C 17.8 °C 1011.9 hPa West 6.4 km/h 11.3 km/h 84% 0.0 mm 547 W/m2
10:46 20.5 °C 17.7 °C 1011.9 hPa WSW 4.7 km/h 12.9 km/h 84% 0.0 mm 116 W/m2
10:51 20.4 °C 17.8 °C 1011.9 hPa WSW 6.4 km/h 8 km/h 85% 0.0 mm 214 W/m2
10:56 20.3 °C 17.5 °C 1011.9 hPa NW 7.9 km/h 11.3 km/h 84% 0.0 mm 260 W/m2
11:01 20.4 °C 17.6 °C 1011.9 hPa NW 6.4 km/h 11.3 km/h 84% 0.0 mm 262 W/m2
11:06 20.5 °C 17.7 °C 1011.9 hPa WSW 6.4 km/h 11.3 km/h 84% 0.0 mm 214 W/m2
11:11 20.3 °C 17.7 °C 1011.9 hPa WNW 6.4 km/h 9.7 km/h 85% 0.0 mm 165 W/m2
11:16 20.3 °C 17.7 °C 1012.2 hPa WNW 3.2 km/h 9.7 km/h 85% 0.0 mm 128 W/m2
11:21 20.3 °C 17.5 °C 1012.2 hPa WSW 4.7 km/h 11.3 km/h 84% 0.0 mm 54 W/m2
11:26 20.2 °C 17.6 °C 1012.5 hPa WNW 6.4 km/h 6.4 km/h 85% 0.0 mm 121 W/m2
11:31 20.1 °C 17.5 °C 1012.5 hPa WSW 4.7 km/h 12.9 km/h 85% 0.0 mm 376 W/m2
11:36 20.2 °C 17.8 °C 1012.5 hPa WSW 3.2 km/h 9.7 km/h 86% 0.0 mm 522 W/m2
11:41 20.6 °C 18 °C 1012.5 hPa WSW 4.7 km/h 9.7 km/h 85% 0.0 mm 455 W/m2
11:46 20.6 °C 17.6 °C 1012.5 hPa West 3.2 km/h 6.4 km/h 83% 0.0 mm 107 W/m2
11:51 20.3 °C 17.3 °C 1012.9 hPa NNW 3.2 km/h 11.3 km/h 83% 0.0 mm 47 W/m2
11:56 19.7 °C 16.9 °C 1012.9 hPa NW 7.9 km/h 11.3 km/h 84% 0.0 mm 148 W/m2
12:01 19.4 °C 16.8 °C 1012.9 hPa NW 3.2 km/h 12.9 km/h 85% 0.0 mm 188 W/m2
12:06 19.3 °C 16.9 °C 1012.9 hPa WNW 4.7 km/h 6.4 km/h 86% 0.0 mm 258 W/m2
12:11 19.4 °C 16.8 °C 1012.9 hPa NW 3.2 km/h 8 km/h 85% 0.0 mm 251 W/m2
12:16 19.4 °C 16.8 °C 1012.9 hPa NW 4.7 km/h 9.7 km/h 85% 0.0 mm 229 W/m2
12:21 19.4 °C 16.8 °C 1012.9 hPa WNW 4.7 km/h 12.9 km/h 85% 0.0 mm 132 W/m2
12:26 19.4 °C 16.8 °C 1012.9 hPa WNW 4.7 km/h 6.4 km/h 85% 0.0 mm 209 W/m2
12:31 19.4 °C 16.8 °C 1012.9 hPa NNW 3.2 km/h 12.9 km/h 85% 0.0 mm 232 W/m2
12:36 19.5 °C 16.7 °C 1012.9 hPa NW 3.2 km/h 11.3 km/h 84% 0.0 mm 135 W/m2
12:41 19.5 °C 16.7 °C 1013.2 hPa WSW 4.7 km/h 14.5 km/h 84% 0.0 mm 102 W/m2
12:46 19.2 °C 16.2 °C 1013.2 hPa West 11.1 km/h 14.5 km/h 83% 0.0 mm 146 W/m2
12:51 18.8 °C 16 °C 1013.2 hPa West 9.7 km/h 11.3 km/h 84% 0.0 mm 153 W/m2
12:56 18.7 °C 16.1 °C 1013.2 hPa NW 1.4 km/h 11.3 km/h 85% 0.0 mm 213 W/m2
13:01 18.9 °C 16.1 °C 1013.2 hPa NNW 4.7 km/h 16.1 km/h 84% 0.0 mm 264 W/m2
13:06 18.9 °C 16.1 °C 1013.2 hPa West 6.4 km/h 12.9 km/h 84% 0.0 mm 248 W/m2
13:11 18.8 °C 16 °C 1013.2 hPa NNW 3.2 km/h 12.9 km/h 84% 0.0 mm 385 W/m2
13:16 18.9 °C 16.1 °C 1013.2 hPa East 1.4 km/h 9.7 km/h 84% 0.0 mm 352 W/m2
13:21 19.1 °C 16.3 °C 1013.2 hPa Calm   12.9 km/h 84% 0.0 mm 322 W/m2
13:26 19.3 °C 16.3 °C 1013.2 hPa WSW 4.7 km/h 6.4 km/h 83% 0.0 mm 264 W/m2
13:31 19.5 °C 16.3 °C 1013.2 hPa Calm   4.8 km/h 82% 0.0 mm 276 W/m2
13:36 19.7 °C 16.7 °C 1013.2 hPa NE 1.4 km/h 6.4 km/h 83% 0.0 mm 346 W/m2
13:41 19.8 °C 16.4 °C 1013.2 hPa Calm   3.2 km/h 81% 0.0 mm 308 W/m2
13:46 19.9 °C 16.5 °C 1013.2 hPa NNE 1.4 km/h 3.2 km/h 81% 0.0 mm 396 W/m2
13:51 20 °C 16.6 °C 1013.5 hPa WNW 1.4 km/h 6.4 km/h 81% 0.0 mm 329 W/m2
13:56 20.1 °C 16.5 °C 1013.5 hPa NNE 1.4 km/h 6.4 km/h 80% 0.0 mm 250 W/m2
14:01 20.2 °C 16.6 °C 1013.5 hPa Calm   1.6 km/h 80% 0.0 mm 334 W/m2
14:06 20.3 °C 16.7 °C 1013.5 hPa NNE 3.2 km/h 8 km/h 80% 0.0 mm 244 W/m2
14:11 20.3 °C 16.5 °C 1013.5 hPa NE 4.7 km/h 6.4 km/h 79% 0.0 mm 246 W/m2
14:17 20.2 °C 16.4 °C 1013.5 hPa NNW 3.2 km/h 3.2 km/h 79% 0.0 mm 234 W/m2
14:22 20.2 °C 16.4 °C 1013.5 hPa NE 6.4 km/h 9.7 km/h 79% 0.0 mm 174 W/m2
14:27 20.1 °C 16.3 °C 1013.5 hPa NNE 1.4 km/h 6.4 km/h 79% 0.0 mm 141 W/m2
14:32 19.9 °C 16.1 °C 1013.5 hPa West 4.7 km/h 9.7 km/h 79% 0.0 mm 172 W/m2
14:37 19.8 °C 16.1 °C 1013.5 hPa NW 4.7 km/h 9.7 km/h 79% 0.0 mm 141 W/m2
14:42 19.8 °C 16.1 °C 1013.5 hPa SE 3.2 km/h 4.8 km/h 79% 0.0 mm 91 W/m2
14:47 19.7 °C 16 °C 1013.5 hPa NE 7.9 km/h 8 km/h 79% 0.0 mm 128 W/m2
14:52 19.6 °C 16.1 °C 1013.9 hPa NNW 7.9 km/h 8 km/h 80% 0.0 mm 229 W/m2
14:57 19.6 °C 15.9 °C 1013.9 hPa NW 4.7 km/h 8 km/h 79% 0.0 mm 200 W/m2
15:02 19.3 °C 15.6 °C 1013.9 hPa NNE 3.2 km/h 9.7 km/h 79% 0.0 mm 128 W/m2
15:07 19.1 °C 15.4 °C 1013.9 hPa NE 4.7 km/h 14.5 km/h 79% 0.0 mm 128 W/m2
15:12 18.8 °C 15.1 °C 1013.9 hPa North 1.4 km/h 8 km/h 79% 0.0 mm 199 W/m2
15:17 18.7 °C 15.2 °C 1013.9 hPa SSW 3.2 km/h 14.5 km/h 80% 0.0 mm 218 W/m2
15:22 18.7 °C 15.2 °C 1013.9 hPa North 3.2 km/h 12.9 km/h 80% 0.0 mm 209 W/m2
15:27 18.7 °C 15.2 °C 1013.9 hPa NNW 4.7 km/h 8 km/h 80% 0.0 mm 190 W/m2
15:32 18.7 °C 15.2 °C 1013.9 hPa NNW 1.4 km/h 6.4 km/h 80% 0.0 mm 188 W/m2
15:37 18.8 °C 15.1 °C 1013.9 hPa SE 7.9 km/h 11.3 km/h 79% 0.0 mm 230 W/m2
15:42 18.9 °C 15 °C 1013.9 hPa WNW 14.3 km/h 16.1 km/h 78% 0.0 mm 269 W/m2
15:47 18.8 °C 14.9 °C 1014.2 hPa NW 6.4 km/h 17.7 km/h 78% 0.0 mm 388 W/m2
15:52 18.7 °C 14.8 °C 1014.2 hPa NW 1.4 km/h 11.3 km/h 78% 0.0 mm 394 W/m2
15:57 18.7 °C 14.6 °C 1014.2 hPa NW 7.9 km/h 17.7 km/h 77% 0.0 mm 221 W/m2
16:02 18.6 °C 14.3 °C 1014.2 hPa ESE 1.4 km/h 14.5 km/h 76% 0.0 mm 193 W/m2
16:07 18.5 °C 14.4 °C 1014.2 hPa NNW 4.7 km/h 4.8 km/h 77% 0.0 mm 221 W/m2
16:12 18.6 °C 14.3 °C 1014.2 hPa NW 3.2 km/h 14.5 km/h 76% 0.0 mm 272 W/m2
16:17 18.6 °C 14.3 °C 1014.2 hPa WNW 6.4 km/h 11.3 km/h 76% 0.0 mm 244 W/m2
16:22 18.7 °C 14.2 °C 1014.2 hPa NW 1.4 km/h 9.7 km/h 75% 0.0 mm 267 W/m2
16:27 18.8 °C 14.3 °C 1014.2 hPa NE 4.7 km/h 6.4 km/h 75% 0.0 mm 283 W/m2
16:32 19 °C 14.3 °C 1014.2 hPa NE 6.4 km/h 8 km/h 74% 0.0 mm 380 W/m2
16:37 19.2 °C 14.2 °C 1014.2 hPa ESE 1.4 km/h 9.7 km/h 73% 0.0 mm 390 W/m2
16:42 19.3 °C 14.1 °C 1014.2 hPa ENE 6.4 km/h 9.7 km/h 72% 0.0 mm 373 W/m2
16:47 19.3 °C 13.9 °C 1014.2 hPa ENE 1.4 km/h 11.3 km/h 71% 0.0 mm 323 W/m2
16:52 19.4 °C 14 °C 1014.2 hPa NNE 4.7 km/h 8 km/h 71% 0.0 mm 322 W/m2
16:57 19.6 °C 14.2 °C 1014.2 hPa NNE 3.2 km/h 8 km/h 71% 0.0 mm 318 W/m2
17:02 19.7 °C 13.9 °C 1014.2 hPa SW 1.4 km/h 14.5 km/h 69% 0.0 mm 283 W/m2
17:07 19.7 °C 14.1 °C 1014.2 hPa NNW 1.4 km/h 4.8 km/h 70% 0.0 mm 278 W/m2
17:12 19.7 °C 14.1 °C 1014.2 hPa East 1.4 km/h 4.8 km/h 70% 0.0 mm 276 W/m2
17:17 19.8 °C 14.2 °C 1014.2 hPa NE 1.4 km/h 6.4 km/h 70% 0.0 mm 318 W/m2
17:22 19.9 °C 14.3 °C 1013.9 hPa ENE 1.4 km/h 6.4 km/h 70% 0.0 mm 322 W/m2
17:27 20 °C 14.4 °C 1013.9 hPa NE 6.4 km/h 9.7 km/h 70% 0.0 mm 302 W/m2
17:32 20.1 °C 14.5 °C 1013.9 hPa NNW 3.2 km/h 8 km/h 70% 0.0 mm 364 W/m2
17:37 20.1 °C 14.5 °C 1013.9 hPa NNW 1.4 km/h 3.2 km/h 70% 0.0 mm 339 W/m2
17:42 20.2 °C 13.9 °C 1013.9 hPa NNE 3.2 km/h 9.7 km/h 67% 0.0 mm 237 W/m2
17:47 20.1 °C 14 °C 1013.9 hPa NE 1.4 km/h 4.8 km/h 68% 0.0 mm 243 W/m2
17:52 20.1 °C 13.8 °C 1013.9 hPa Calm   4.8 km/h 67% 0.0 mm 244 W/m2
17:57 20.2 °C 13.6 °C 1013.9 hPa SSE 4.7 km/h 12.9 km/h 66% 0.0 mm 631 W/m2
18:02 20.4 °C 13.6 °C 1013.9 hPa ENE 4.7 km/h 9.7 km/h 65% 0.0 mm 543 W/m2
18:07 20.7 °C 13.6 °C 1013.9 hPa Calm   6.4 km/h 64% 0.0 mm 545 W/m2
18:12 20.9 °C 13.6 °C 1013.9 hPa NNE 4.7 km/h 12.9 km/h 63% 0.0 mm 503 W/m2
18:17 20.9 °C 13.3 °C 1013.9 hPa ENE 11.1 km/h 14.5 km/h 62% 0.0 mm 496 W/m2
18:22 20.8 °C 13.3 °C 1013.9 hPa North 11.1 km/h 11.3 km/h 62% 0.0 mm 462 W/m2
18:27 20.8 °C 13.3 °C 1013.9 hPa East 4.7 km/h 14.5 km/h 62% 0.0 mm 394 W/m2
18:32 20.7 °C 12.7 °C 1013.9 hPa NNE 3.2 km/h 14.5 km/h 60% 0.0 mm 396 W/m2
18:37 20.7 °C 12.9 °C 1014.2 hPa ENE 4.7 km/h 4.8 km/h 61% 0.0 mm 357 W/m2
18:42 20.6 °C 12 °C 1014.2 hPa Calm   9.7 km/h 58% 0.0 mm 332 W/m2
18:47 20.6 °C 12 °C 1014.2 hPa NNW 4.7 km/h 6.4 km/h 58% 0.0 mm 292 W/m2
18:52 20.6 °C 11.8 °C 1014.2 hPa ENE 3.2 km/h 16.1 km/h 57% 0.0 mm 216 W/m2
18:57 20.6 °C 11.8 °C 1014.2 hPa ENE 3.2 km/h 8 km/h 57% 0.0 mm 70 W/m2
19:02 20.6 °C 12 °C 1014.2 hPa East 3.2 km/h 16.1 km/h 58% 0.0 mm 70 W/m2
19:07 20.7 °C 11.9 °C 1014.2 hPa ENE 4.7 km/h 9.7 km/h 57% 0.0 mm 74 W/m2
19:12 20.3 °C 11.2 °C 1014.2 hPa NNE 4.7 km/h 12.9 km/h 56% 0.0 mm 77 W/m2
19:17 20 °C 11 °C 1014.2 hPa ENE 4.7 km/h 14.5 km/h 56% 0.0 mm 74 W/m2
19:22 19.7 °C 10.9 °C 1014.2 hPa North 4.7 km/h 8 km/h 57% 0.0 mm 72 W/m2
19:27 19.7 °C 10.9 °C 1014.2 hPa ENE 6.4 km/h 8 km/h 57% 0.0 mm 69 W/m2
19:32 19.7 °C 10.7 °C 1014.2 hPa ENE 3.2 km/h 8 km/h 56% 0.0 mm 63 W/m2
19:37 19.6 °C 10.6 °C 1014.2 hPa NE 6.4 km/h 11.3 km/h 56% 0.0 mm 62 W/m2
19:42 19.6 °C 10.8 °C 1014.2 hPa ESE 1.4 km/h 8 km/h 57% 0.0 mm 60 W/m2
19:47 19.3 °C 10.6 °C 1014.2 hPa WNW 11.1 km/h 11.3 km/h 57% 0.0 mm 58 W/m2
19:52 19.2 °C 10.7 °C 1014.6 hPa NNE 9.7 km/h 14.5 km/h 58% 0.0 mm 54 W/m2
19:57 19.1 °C 10.9 °C 1014.6 hPa SE 6.4 km/h 12.9 km/h 59% 0.0 mm 79 W/m2
20:02 19 °C 10.8 °C 1014.6 hPa Calm   4.8 km/h 59% 0.0 mm 149 W/m2
20:07 18.9 °C 10.7 °C 1014.6 hPa ENE 4.7 km/h 9.7 km/h 59% 0.0 mm 54 W/m2
20:12 18.9 °C 10.7 °C 1014.6 hPa Calm   9.7 km/h 59% 0.0 mm 54 W/m2
20:17 18.8 °C 10.6 °C 1014.2 hPa NNW 4.7 km/h 9.7 km/h 59% 0.0 mm 49 W/m2
20:22 18.7 °C 10.5 °C 1014.6 hPa ESE 4.7 km/h 11.3 km/h 59% 0.0 mm 51 W/m2
20:27 18.7 °C 10.5 °C 1014.6 hPa North 4.7 km/h 8 km/h 59% 0.0 mm 58 W/m2
20:32 18.7 °C 10.8 °C 1014.6 hPa NNW 4.7 km/h 8 km/h 60% 0.0 mm 46 W/m2
20:37 18.5 °C 10.3 °C 1014.6 hPa East 3.2 km/h 6.4 km/h 59% 0.0 mm 54 W/m2
20:42 18.4 °C 10.5 °C 1014.6 hPa NNE 3.2 km/h 3.2 km/h 60% 0.0 mm 51 W/m2
20:47 18.3 °C 10.6 °C 1014.6 hPa NNE 6.4 km/h 11.3 km/h 61% 0.0 mm 46 W/m2
20:53 18.2 °C 10.8 °C 1014.6 hPa NNE 1.4 km/h 12.9 km/h 62% 0.0 mm 39 W/m2
20:58 18.1 °C 10.7 °C 1014.6 hPa NNW 1.4 km/h 4.8 km/h 62% 0.0 mm 25 W/m2
21:03 18 °C 10.9 °C 1014.6 hPa NE 6.4 km/h 6.4 km/h 63% 0.0 mm 21 W/m2
21:08 17.9 °C 11 °C 1014.6 hPa ENE 1.4 km/h 3.2 km/h 64% 0.0 mm 25 W/m2
21:13 17.8 °C 11.1 °C 1014.6 hPa North 4.7 km/h 9.7 km/h 65% 0.0 mm 26 W/m2
21:18 17.8 °C 11.1 °C 1014.6 hPa NNW 1.4 km/h 6.4 km/h 65% 0.0 mm 21 W/m2
21:23 17.7 °C 11.3 °C 1014.6 hPa ENE 4.7 km/h 4.8 km/h 66% 0.0 mm 16 W/m2
21:28 17.6 °C 11.2 °C 1014.6 hPa ENE 1.4 km/h 6.4 km/h 66% 0.0 mm 12 W/m2
21:33 17.5 °C 11.1 °C 1014.6 hPa SE 4.7 km/h 9.7 km/h 66% 0.0 mm 9 W/m2
21:38 17.4 °C 11.2 °C 1014.6 hPa SE 4.7 km/h 4.8 km/h 67% 0.0 mm 7 W/m2
21:43 17.3 °C 11.3 °C 1014.6 hPa SSE 4.7 km/h 6.4 km/h 68% 0.0 mm 5 W/m2
21:48 17.1 °C 11.4 °C 1014.6 hPa East 3.2 km/h 4.8 km/h 69% 0.0 mm 5 W/m2
21:53 17 °C 11.3 °C 1014.6 hPa East 3.2 km/h 6.4 km/h 69% 0.0 mm 0 W/m2
21:58 16.9 °C 11.4 °C 1014.6 hPa ESE 3.2 km/h 3.2 km/h 70% 0.0 mm 0 W/m2
22:03 16.9 °C 11.4 °C 1014.9 hPa ESE 1.4 km/h 3.2 km/h 70% 0.0 mm 0 W/m2
22:08 16.8 °C 11.5 °C 1014.9 hPa ENE 1.4 km/h 6.4 km/h 71% 0.0 mm 0 W/m2
22:13 16.7 °C 11.4 °C 1014.9 hPa East 3.2 km/h 4.8 km/h 71% 0.0 mm 0 W/m2
22:18 16.7 °C 11.6 °C 1014.9 hPa East 1.4 km/h 3.2 km/h 72% 0.0 mm 0 W/m2
22:23 16.6 °C 11.5 °C 1014.9 hPa ENE 1.4 km/h 1.6 km/h 72% 0.0 mm 0 W/m2
22:28 16.4 °C 11.5 °C 1014.9 hPa ESE 3.2 km/h 3.2 km/h 73% 0.0 mm 0 W/m2
22:33 16.4 °C 11.5 °C 1014.9 hPa ESE 1.4 km/h 1.6 km/h 73% 0.0 mm 0 W/m2
22:38 16.3 °C 11.7 °C 1014.9 hPa East 3.2 km/h 4.8 km/h 74% 0.0 mm 0 W/m2
22:43 16.3 °C 11.7 °C 1014.9 hPa East 1.4 km/h 3.2 km/h 74% 0.0 mm 0 W/m2
22:48 16.3 °C 11.7 °C 1014.9 hPa Calm   3.2 km/h 74% 0.0 mm 0 W/m2
22:53 16.2 °C 11.8 °C 1014.9 hPa East 1.4 km/h 1.6 km/h 75% 0.0 mm 0 W/m2
22:58 16.2 °C 11.8 °C 1014.6 hPa East 1.4 km/h 1.6 km/h 75% 0.0 mm 0 W/m2
23:03 16 °C 11.6 °C 1014.9 hPa Calm   3.2 km/h 75% 0.0 mm 0 W/m2
23:08 15.9 °C 11.7 °C 1014.9 hPa Calm   1.6 km/h 76% 0.0 mm 0 W/m2
23:13 15.8 °C 11.8 °C 1014.9 hPa East 1.4 km/h 1.6 km/h 77% 0.0 mm 0 W/m2
23:18 15.7 °C 11.7 °C 1014.6 hPa Calm   1.6 km/h 77% 0.0 mm 0 W/m2
23:23 15.6 °C 11.8 °C 1014.6 hPa Calm     78% 0.0 mm 0 W/m2
23:28 15.4 °C 11.6 °C 1014.6 hPa East 1.4 km/h 1.6 km/h 78% 0.0 mm 0 W/m2
23:33 15.3 °C 11.7 °C 1014.6 hPa Calm     79% 0.0 mm 0 W/m2
23:38 15.2 °C 11.6 °C 1014.6 hPa Calm   1.6 km/h 79% 0.0 mm 0 W/m2
23:43 15.1 °C 11.7 °C 1014.6 hPa East 1.4 km/h 1.6 km/h 80% 0.0 mm 0 W/m2
23:48 15 °C 11.6 °C 1014.6 hPa East 1.4 km/h 3.2 km/h 80% 0.0 mm 0 W/m2
23:53 14.9 °C 11.7 °C 1014.6 hPa Calm   1.6 km/h 81% 0.0 mm 0 W/m2
23:58 14.8 °C 11.6 °C 1014.6 hPa Calm     81% 0.0 mm 0 W/m2
Juneau County Weather
Compliments of Weather Underground - 4 mb